| time (UTC) | temp C | wind direction | speed KPH | gust KPH | rain 1hr cm | rain 24hr cm | rain mn cm | humidity % | barometer mb |
| 20260507134402 | 12 | 24 | 0.0 | 1.6 | 0.00 | 0.28 | 0.28 | 67 | 1013.9 |
| 20260507133858 | 11 | 24 | 0.0 | 0.0 | 0.00 | 0.28 | 0.28 | 67 | 1013.8 |
| 20260507133354 | 11 | 24 | 0.0 | 1.6 | 0.00 | 0.28 | 0.28 | 68 | 1013.8 |
| 20260507132853 | 11 | 24 | 1.6 | 1.6 | 0.00 | 0.28 | 0.28 | 67 | 1013.7 |
| 20260507132349 | 11 | 24 | 0.0 | 3.2 | 0.00 | 0.28 | 0.28 | 68 | 1013.7 |
| 20260507131846 | 11 | 24 | 0.0 | 0.0 | 0.00 | 0.28 | 0.28 | 67 | 1013.6 |
| 20260507131343 | 11 | 24 | 0.0 | 1.6 | 0.00 | 0.28 | 0.28 | 72 | 1013.6 |
| 20260507130839 | 11 | 24 | 1.6 | 1.6 | 0.00 | 0.28 | 0.28 | 69 | 1013.8 |
| 20260507130337 | 11 | 24 | 0.0 | 0.0 | 0.00 | 0.28 | 0.28 | 76 | 1013.8 |
| 20260507125836 | 11 | 24 | 0.0 | 1.6 | 0.00 | 0.28 | 0.28 | 77 | 1013.8 |
| 20260507125333 | 11 | 24 | 0.0 | 0.0 | 0.00 | 0.28 | 0.28 | 69 | 1013.8 |
| 20260507124830 | 11 | 24 | 0.0 | 0.0 | 0.00 | 0.28 | 0.28 | 68 | 1013.5 |
| 20260507124326 | 11 | 24 | 0.0 | 0.0 | 0.00 | 0.28 | 0.28 | 70 | 1013.6 |
| 20260507123825 | 11 | 24 | 0.0 | 1.6 | 0.00 | 0.28 | 0.28 | 72 | 1013.7 |
| 20260507123322 | 11 | 24 | 0.0 | 0.0 | 0.00 | 0.28 | 0.28 | 71 | 1013.6 |
| 20260507122818 | 11 | 24 | 0.0 | 0.0 | 0.00 | 0.28 | 0.28 | 73 | 1013.7 |
| 20260507122313 | 11 | 24 | 0.0 | 0.0 | 0.00 | 0.28 | 0.28 | 71 | 1013.5 |
| 20260507121810 | 11 | 24 | 0.0 | 0.0 | 0.00 | 0.28 | 0.28 | 69 | 1013.6 |
| 20260507121306 | 11 | 24 | 0.0 | 0.0 | 0.00 | 0.28 | 0.28 | 68 | 1013.6 |
| 20260507120802 | 11 | 24 | 0.0 | 0.0 | 0.00 | 0.28 | 0.28 | 69 | 1013.2 |
| 20260507120259 | 11 | 24 | 0.0 | 1.6 | 0.00 | 0.28 | 0.28 | 70 | 1013.3 |
| 20260507115755 | 11 | 24 | 0.0 | 0.0 | 0.00 | 0.28 | 0.28 | 70 | 1013.3 |
| 20260507115250 | 11 | 24 | 0.0 | 0.0 | 0.00 | 0.28 | 0.28 | 72 | 1013.3 |
| 20260507114746 | 11 | 24 | 0.0 | 0.0 | 0.00 | 0.28 | 0.28 | 71 | 1013.3 |
| 20260507114244 | 11 | 24 | 0.0 | 0.0 | 0.00 | 0.28 | 0.28 | 74 | 1013.3 |
| 20260507113741 | 11 | 24 | 1.6 | 3.2 | 0.00 | 0.28 | 0.28 | 72 | 1013.3 |
| 20260507113238 | 11 | 24 | 1.6 | 1.6 | 0.00 | 0.28 | 0.28 | 75 | 1013.3 |
| 20260507112736 | 11 | 24 | 0.0 | 0.0 | 0.00 | 0.28 | 0.28 | 75 | 1013.3 |
| 20260507112232 | 11 | 24 | 4.8 | 4.8 | 0.00 | 0.28 | 0.28 | 75 | 1013.3 |
| 20260507111730 | 11 | 24 | 0.0 | 0.0 | 0.00 | 0.28 | 0.28 | 78 | 1013.4 |
| 20260507111227 | 11 | 24 | 0.0 | 0.0 | 0.00 | 0.28 | 0.28 | 81 | 1013.4 |
| 20260507110722 | 11 | 24 | 0.0 | 0.0 | 0.00 | 0.28 | 0.28 | 80 | 1013.3 |
| 20260507110219 | 11 | 24 | 0.0 | 0.0 | 0.00 | 0.28 | 0.28 | 80 | 1013.0 |
| 20260507105716 | 11 | 24 | 0.0 | 0.0 | 0.00 | 0.28 | 0.28 | 82 | 1013.2 |
| 20260507105212 | 11 | 24 | 1.6 | 3.2 | 0.00 | 0.28 | 0.28 | 84 | 1013.2 |
| 20260507104710 | 11 | 24 | 0.0 | 0.0 | 0.00 | 0.28 | 0.28 | 86 | 1013.0 |
| 20260507104206 | 11 | 24 | 0.0 | 0.0 | 0.00 | 0.28 | 0.28 | 86 | 1012.9 |
| 20260507103702 | 11 | 24 | 0.0 | 0.0 | 0.00 | 0.28 | 0.28 | 89 | 1013.1 |
| 20260507103159 | 11 | 24 | 0.0 | 0.0 | 0.00 | 0.28 | 0.28 | 90 | 1012.8 |
| 20260507102655 | 11 | 24 | 0.0 | 0.0 | 0.00 | 0.28 | 0.28 | 91 | 1012.9 |
| 20260507102152 | 11 | 24 | 0.0 | 0.0 | 0.00 | 0.28 | 0.28 | 92 | 1012.5 |
| 20260507101647 | 11 | 24 | 0.0 | 0.0 | 0.00 | 0.28 | 0.28 | 92 | 1012.6 |
| 20260507101143 | 11 | 24 | 0.0 | 0.0 | 0.00 | 0.28 | 0.28 | 93 | 1012.5 |
| 20260507100641 | 11 | 24 | 0.0 | 0.0 | 0.00 | 0.28 | 0.28 | 93 | 1012.5 |
| 20260507100140 | 11 | 24 | 0.0 | 0.0 | 0.00 | 0.28 | 0.28 | 93 | 1012.3 |
| 20260507095637 | 11 | 24 | 0.0 | 0.0 | 0.00 | 0.28 | 0.28 | 93 | 1012.7 |
| 20260507095133 | 11 | 24 | 0.0 | 0.0 | 0.00 | 0.28 | 0.28 | 93 | 1012.4 |
| 20260507094629 | 11 | 24 | 0.0 | 0.0 | 0.00 | 0.28 | 0.28 | 93 | 1012.5 |
| 20260507094126 | 11 | 24 | 0.0 | 0.0 | 0.00 | 0.28 | 0.28 | 93 | 1012.3 |
| 20260507093624 | 11 | 24 | 0.0 | 0.0 | 0.00 | 0.28 | 0.28 | 93 | 1012.3 |
| 20260507093123 | 11 | 24 | 0.0 | 0.0 | 0.00 | 0.28 | 0.28 | 93 | 1012.0 |
| 20260507092618 | 11 | 24 | 0.0 | 0.0 | 0.00 | 0.28 | 0.28 | 93 | 1012.1 |
| 20260507092115 | 11 | 24 | 0.0 | 0.0 | 0.00 | 0.28 | 0.28 | 92 | 1012.0 |
| 20260507091612 | 11 | 24 | 0.0 | 0.0 | 0.00 | 0.28 | 0.28 | 92 | 1012.1 |
| 20260507091108 | 11 | 24 | 0.0 | 0.0 | 0.00 | 0.28 | 0.28 | 91 | 1012.4 |
| 20260507090604 | 11 | 24 | 0.0 | 0.0 | 0.00 | 0.28 | 0.28 | 90 | 1012.6 |
| 20260507090101 | 11 | 24 | 1.6 | 1.6 | 0.00 | 0.28 | 0.28 | 89 | 1012.5 |
| 20260507085558 | 11 | 24 | 0.0 | 0.0 | 0.00 | 0.28 | 0.28 | 89 | 1012.4 |
| 20260507085055 | 11 | 24 | 0.0 | 0.0 | 0.00 | 0.28 | 0.28 | 88 | 1012.1 |
| 20260507084551 | 11 | 24 | 0.0 | 1.6 | 0.00 | 0.28 | 0.28 | 89 | 1012.1 |
| 20260507084048 | 11 | 24 | 0.0 | 0.0 | 0.00 | 0.28 | 0.28 | 89 | 1011.9 |
| 20260507083544 | 11 | 24 | 0.0 | 0.0 | 0.00 | 0.28 | 0.28 | 89 | 1012.1 |
| 20260507083042 | 11 | 24 | 0.0 | 1.6 | 0.00 | 0.28 | 0.28 | 89 | 1012.0 |
| 20260507082537 | 11 | 24 | 1.6 | 1.6 | 0.00 | 0.28 | 0.28 | 90 | 1011.8 |
| 20260507082034 | 11 | 24 | 0.0 | 0.0 | 0.00 | 0.28 | 0.28 | 90 | 1011.9 |
| 20260507081530 | 11 | 24 | 0.0 | 0.0 | 0.00 | 0.28 | 0.28 | 90 | 1011.6 |
| 20260507081028 | 12 | 24 | 1.6 | 3.2 | 0.00 | 0.28 | 0.28 | 90 | 1011.4 |
| 20260507080523 | 11 | 24 | 0.0 | 0.0 | 0.00 | 0.28 | 0.28 | 91 | 1011.4 |
| 20260507080020 | 12 | 24 | 1.6 | 3.2 | 0.00 | 0.28 | 0.28 | 91 | 1011.5 |
| 20260507075515 | 12 | 24 | 1.6 | 3.2 | 0.00 | 0.28 | 0.28 | 90 | 1011.2 |
| 20260507075012 | 12 | 24 | 6.4 | 6.4 | 0.00 | 0.28 | 0.28 | 90 | 1011.3 |
| 20260507074509 | 12 | 24 | 3.2 | 3.2 | 0.00 | 0.28 | 0.28 | 90 | 1011.3 |
| 20260507074008 | 12 | 24 | 0.0 | 1.6 | 0.00 | 0.28 | 0.28 | 90 | 1011.2 |
| 20260507073503 | 12 | 24 | 3.2 | 3.2 | 0.00 | 0.28 | 0.28 | 90 | 1011.2 |
| 20260507073000 | 12 | 24 | 0.0 | 1.6 | 0.00 | 0.28 | 0.28 | 91 | 1011.2 |
| 20260507072457 | 12 | 24 | 1.6 | 3.2 | 0.00 | 0.28 | 0.28 | 90 | 1011.3 |
| 20260507071954 | 12 | 24 | 1.6 | 1.6 | 0.00 | 0.28 | 0.28 | 90 | 1011.4 |
| 20260507071451 | 12 | 24 | 3.2 | 3.2 | 0.00 | 0.28 | 0.28 | 90 | 1011.4 |
| 20260507070948 | 12 | 24 | 0.0 | 0.0 | 0.00 | 0.28 | 0.28 | 89 | 1011.2 |
| 20260507070445 | 12 | 24 | 0.0 | 1.6 | 0.00 | 0.28 | 0.28 | 90 | 1011.1 |
| 20260507065942 | 12 | 24 | 0.0 | 1.6 | 0.00 | 0.28 | 0.28 | 90 | 1011.2 |
| 20260507065439 | 12 | 24 | 1.6 | 3.2 | 0.00 | 0.28 | 0.28 | 90 | 1011.3 |
| 20260507064936 | 12 | 24 | 6.4 | 6.4 | 0.00 | 0.28 | 0.28 | 91 | 1011.4 |
| 20260507064434 | 12 | 24 | 0.0 | 0.0 | 0.00 | 0.28 | 0.28 | 92 | 1011.3 |
| 20260507063932 | 12 | 24 | 1.6 | 3.2 | 0.00 | 0.28 | 0.28 | 92 | 1011.2 |
| 20260507063428 | 13 | 24 | 0.0 | 1.6 | 0.00 | 0.28 | 0.28 | 93 | 1011.4 |
| 20260507062926 | 13 | 24 | 0.0 | 1.6 | 0.00 | 0.28 | 0.28 | 93 | 1011.5 |
| 20260507062423 | 13 | 24 | 0.0 | 0.0 | 0.00 | 0.28 | 0.28 | 93 | 1011.2 |
| 20260507061920 | 12 | 24 | 0.0 | 1.6 | 0.00 | 0.28 | 0.28 | 93 | 1011.4 |
| 20260507061418 | 13 | 24 | 3.2 | 3.2 | 0.00 | 0.28 | 0.28 | 93 | 1011.3 |
| 20260507060916 | 13 | 24 | 0.0 | 1.6 | 0.00 | 0.28 | 0.28 | 94 | 1011.1 |
| 20260507060412 | 13 | 24 | 0.0 | 0.0 | 0.00 | 0.28 | 0.28 | 94 | 1011.4 |
| 20260507055909 | 13 | 24 | 1.6 | 3.2 | 0.13 | 0.28 | 0.28 | 94 | 1011.6 |
| 20260507055404 | 13 | 24 | 0.0 | 0.0 | 0.13 | 0.28 | 0.28 | 94 | 1011.5 |
| 20260507054902 | 13 | 24 | 0.0 | 0.0 | 0.00 | 0.25 | 0.25 | 93 | 1011.2 |
| 20260507054357 | 13 | 24 | 0.0 | 0.0 | 0.00 | 0.25 | 0.25 | 93 | 1011.3 |
| 20260507053855 | 13 | 24 | 0.0 | 0.0 | 0.00 | 0.25 | 0.25 | 93 | 1011.5 |
| 20260507053353 | 13 | 24 | 0.0 | 1.6 | 0.00 | 0.25 | 0.25 | 93 | 1011.3 |
| 20260507052851 | 13 | 24 | 0.0 | 0.0 | 0.18 | 0.25 | 0.25 | 92 | 1011.6 |
| 20260507052348 | 13 | 24 | 0.0 | 0.0 | 0.18 | 0.25 | 0.25 | 92 | 1011.7 |
| 20260507051845 | 13 | 24 | 0.0 | 0.0 | 0.00 | 0.23 | 0.23 | 92 | 1011.6 |
| 20260507051343 | 13 | 24 | 0.0 | 0.0 | 0.00 | 0.23 | 0.23 | 91 | 1011.6 |
| 20260507050839 | 13 | 24 | 0.0 | 0.0 | 0.13 | 0.23 | 0.23 | 90 | 1011.5 |
| 20260507050336 | 13 | 24 | 0.0 | 0.0 | 0.13 | 0.23 | 0.23 | 89 | 1011.7 |
| 20260507045833 | 13 | 24 | 0.0 | 1.6 | 0.79 | 0.20 | 0.20 | 89 | 1011.8 |
| 20260507045329 | 13 | 24 | 0.0 | 1.6 | 0.89 | 0.20 | 0.20 | 87 | 1012.1 |
| 20260507044826 | 14 | 24 | 0.0 | 0.0 | 0.48 | 0.08 | 0.08 | 86 | 1011.3 |
| 20260507044323 | 15 | 24 | 0.0 | 1.6 | 0.36 | 0.05 | 0.05 | 84 | 1011.2 |
| 20260507043819 | 15 | 24 | 0.0 | 0.0 | 0.00 | 0.00 | 0.00 | 82 | 1011.4 |
| 20260507043316 | 15 | 24 | 3.2 | 3.2 | 0.00 | 0.00 | 0.00 | 81 | 1011.5 |
| 20260507042812 | 15 | 24 | 1.6 | 3.2 | 0.00 | 0.00 | 0.00 | 79 | 1011.5 |
| 20260507042308 | 15 | 24 | 3.2 | 3.2 | 0.00 | 0.00 | 0.00 | 79 | 1011.6 |
| 20260507041805 | 15 | 24 | 0.0 | 1.6 | 0.00 | 0.00 | 0.00 | 79 | 1011.6 |
| 20260507041301 | 15 | 24 | 0.0 | 0.0 | 0.00 | 0.00 | 0.00 | 78 | 1011.5 |
| 20260507040758 | 15 | 24 | 1.6 | 1.6 | 0.00 | 0.00 | 0.00 | 78 | 1011.1 |
| 20260507040254 | 16 | 24 | 1.6 | 1.6 | 0.00 | 0.00 | 0.00 | 77 | 1011.4 |
| 20260507035751 | 16 | 24 | 0.0 | 0.0 | 0.00 | 0.64 | 0.64 | 76 | 1011.1 |
| 20260507035246 | 16 | 24 | 1.6 | 3.2 | 0.00 | 0.64 | 0.64 | 75 | 1010.8 |
| 20260507034744 | 16 | 24 | 3.2 | 3.2 | 0.00 | 0.64 | 0.64 | 75 | 1010.5 |
| 20260507034240 | 16 | 24 | 0.0 | 0.0 | 0.00 | 0.64 | 0.64 | 74 | 1010.9 |
| 20260507033739 | 16 | 24 | 1.6 | 3.2 | 0.00 | 0.64 | 0.64 | 74 | 1011.0 |
| 20260507033236 | 16 | 24 | 0.0 | 0.0 | 0.00 | 0.64 | 0.64 | 74 | 1010.6 |
| 20260507032733 | 16 | 24 | 0.0 | 1.6 | 0.00 | 0.64 | 0.64 | 74 | 1011.0 |
| 20260507032229 | 16 | 24 | 1.6 | 1.6 | 0.00 | 0.64 | 0.64 | 73 | 1010.9 |
| 20260507031726 | 16 | 24 | 1.6 | 1.6 | 0.00 | 0.64 | 0.64 | 74 | 1011.0 |
| 20260507031223 | 16 | 24 | 3.2 | 4.8 | 0.00 | 0.64 | 0.64 | 75 | 1010.9 |
| 20260507030720 | 17 | 24 | 6.4 | 11.3 | 0.00 | 0.64 | 0.64 | 75 | 1011.0 |
| 20260507030217 | 17 | 24 | 1.6 | 3.2 | 0.00 | 0.64 | 0.64 | 76 | 1010.7 |
| 20260507025714 | 17 | 24 | 3.2 | 3.2 | 0.00 | 0.64 | 0.64 | 76 | 1010.5 |
| 20260507025211 | 17 | 24 | 4.8 | 6.4 | 0.00 | 0.64 | 0.64 | 78 | 1010.5 |
| 20260507024709 | 17 | 24 | 6.4 | 6.4 | 0.00 | 0.64 | 0.64 | 78 | 1010.6 |
| 20260507024206 | 17 | 24 | 0.0 | 1.6 | 0.00 | 0.64 | 0.64 | 77 | 1010.6 |
| 20260507023701 | 17 | 24 | 3.2 | 3.2 | 0.00 | 0.64 | 0.64 | 77 | 1010.3 |
| 20260507023159 | 17 | 24 | 0.0 | 1.6 | 0.00 | 0.64 | 0.64 | 77 | 1010.5 |
| 20260507022656 | 17 | 24 | 4.8 | 4.8 | 0.00 | 0.64 | 0.64 | 77 | 1010.6 |
| 20260507022152 | 17 | 24 | 1.6 | 1.6 | 0.00 | 0.64 | 0.64 | 77 | 1010.3 |
| 20260507021648 | 17 | 24 | 3.2 | 3.2 | 0.00 | 0.64 | 0.64 | 78 | 1010.4 |
| 20260507021143 | 17 | 24 | 6.4 | 6.4 | 0.00 | 0.64 | 0.64 | 78 | 1010.0 |
| 20260507020642 | 17 | 24 | 1.6 | 1.6 | 0.00 | 0.64 | 0.64 | 79 | 1009.8 |
| 20260507020138 | 18 | 24 | 0.0 | 0.0 | 0.00 | 0.64 | 0.64 | 79 | 1010.2 |
| 20260507015637 | 18 | 24 | 1.6 | 3.2 | 0.00 | 0.64 | 0.64 | 79 | 1010.0 |
| 20260507015134 | 18 | 24 | 1.6 | 1.6 | 0.00 | 0.64 | 0.64 | 80 | 1010.3 |
| 20260507014630 | 18 | 24 | 0.0 | 0.0 | 0.00 | 0.64 | 0.64 | 80 | 1010.0 |
| 20260507014126 | 18 | 24 | 0.0 | 0.0 | 0.00 | 0.64 | 0.64 | 80 | 1009.9 |
| 20260507013623 | 18 | 24 | 3.2 | 3.2 | 0.00 | 0.64 | 0.64 | 79 | 1010.4 |
| 20260507013120 | 18 | 24 | 6.4 | 6.4 | 0.00 | 0.64 | 0.64 | 79 | 1010.2 |
| 20260507012617 | 18 | 24 | 0.0 | 1.6 | 0.00 | 0.64 | 0.64 | 79 | 1010.3 |
| 20260507012113 | 18 | 24 | 1.6 | 1.6 | 0.00 | 0.64 | 0.64 | 79 | 1010.3 |
| 20260507011611 | 18 | 24 | 1.6 | 1.6 | 0.00 | 0.64 | 0.64 | 79 | 1010.2 |
| 20260507011107 | 19 | 24 | 0.0 | 0.0 | 0.00 | 0.64 | 0.64 | 78 | 1010.2 |
| 20260507010602 | 19 | 24 | 4.8 | 4.8 | 0.00 | 0.64 | 0.64 | 79 | 1010.3 |
| 20260507010058 | 19 | 24 | 1.6 | 1.6 | 0.00 | 0.64 | 0.64 | 81 | 1010.6 |
| 20260507005556 | 19 | 24 | 0.0 | 0.0 | 0.00 | 0.64 | 0.64 | 83 | 1010.3 |
| 20260507005052 | 19 | 24 | 0.0 | 0.0 | 0.00 | 0.64 | 0.64 | 84 | 1009.8 |
| 20260507004549 | 19 | 24 | 0.0 | 0.0 | 0.00 | 0.64 | 0.64 | 84 | 1009.9 |
| 20260507004046 | 19 | 24 | 0.0 | 0.0 | 0.00 | 0.64 | 0.64 | 83 | 1009.9 |
| 20260507003542 | 19 | 24 | 0.0 | 0.0 | 0.00 | 0.64 | 0.64 | 83 | 1009.9 |
| 20260507003037 | 19 | 23 | 0.0 | 0.0 | 0.00 | 0.64 | 0.64 | 82 | 1009.7 |
| 20260507002534 | 19 | 24 | 0.0 | 0.0 | 0.00 | 0.64 | 0.64 | 82 | 1009.6 |
| 20260507002030 | 19 | 24 | 3.2 | 3.2 | 0.00 | 0.64 | 0.64 | 82 | 1009.8 |
| 20260507001527 | 19 | 24 | 0.0 | 0.0 | 0.00 | 0.64 | 0.64 | 82 | 1009.7 |
| 20260507001025 | 19 | 24 | 0.0 | 1.6 | 0.00 | 0.64 | 0.64 | 82 | 1009.8 |
| 20260507000520 | 19 | 23 | 0.0 | 1.6 | 0.00 | 0.64 | 0.64 | 83 | 1009.6 |
| 20260507000016 | 19 | 23 | 0.0 | 0.0 | 0.00 | 0.64 | 0.64 | 82 | 1009.4 |
| 20260506235514 | 19 | 23 | 1.6 | 1.6 | 0.00 | 0.64 | 0.64 | 83 | 1009.5 |
| 20260506235009 | 19 | 23 | 0.0 | 1.6 | 0.00 | 0.64 | 0.64 | 83 | 1009.4 |
| 20260506234507 | 19 | 24 | 0.0 | 0.0 | 0.00 | 0.64 | 0.64 | 85 | 1009.5 |
| 20260506234004 | 19 | 23 | 0.0 | 0.0 | 0.00 | 0.64 | 0.64 | 85 | 1009.1 |
| 20260506233500 | 19 | 23 | 0.0 | 0.0 | 0.00 | 0.64 | 0.64 | 84 | 1009.0 |
| 20260506232957 | 20 | 23 | 0.0 | 0.0 | 0.00 | 0.64 | 0.64 | 83 | 1009.3 |
| 20260506232453 | 20 | 23 | 0.0 | 0.0 | 0.00 | 0.64 | 0.64 | 83 | 1009.3 |
| 20260506231949 | 20 | 23 | 0.0 | 0.0 | 0.00 | 0.64 | 0.64 | 83 | 1009.2 |
| 20260506231447 | 20 | 23 | 0.0 | 0.0 | 0.00 | 0.64 | 0.64 | 81 | 1009.0 |
| 20260506230944 | 20 | 23 | 0.0 | 0.0 | 0.00 | 0.64 | 0.64 | 82 | 1009.1 |
| 20260506230440 | 20 | 23 | 1.6 | 1.6 | 0.00 | 0.64 | 0.64 | 78 | 1009.0 |
| 20260506225937 | 20 | 23 | 0.0 | 0.0 | 0.00 | 0.64 | 0.64 | 78 | 1009.1 |
| 20260506225434 | 20 | 23 | 0.0 | 1.6 | 0.00 | 0.64 | 0.64 | 77 | 1008.9 |
| 20260506224931 | 20 | 23 | 1.6 | 1.6 | 0.00 | 0.64 | 0.64 | 77 | 1009.0 |
| 20260506224428 | 20 | 23 | 1.6 | 1.6 | 0.00 | 0.64 | 0.64 | 78 | 1009.1 |
| 20260506223925 | 20 | 23 | 3.2 | 3.2 | 0.00 | 0.64 | 0.64 | 76 | 1008.7 |
| 20260506223420 | 21 | 23 | 3.2 | 3.2 | 0.00 | 0.64 | 0.64 | 75 | 1008.9 |
| 20260506222917 | 20 | 23 | 0.0 | 0.0 | 0.00 | 0.64 | 0.64 | 77 | 1008.8 |
| 20260506222414 | 20 | 23 | 1.6 | 1.6 | 0.00 | 0.64 | 0.64 | 76 | 1008.9 |
| 20260506221911 | 20 | 23 | 3.2 | 3.2 | 0.00 | 0.64 | 0.64 | 77 | 1009.0 |
| 20260506221408 | 20 | 23 | 6.4 | 6.4 | 0.00 | 0.64 | 0.64 | 76 | 1008.9 |
| 20260506220906 | 20 | 23 | 1.6 | 3.2 | 0.00 | 0.64 | 0.64 | 76 | 1009.1 |
| 20260506220401 | 20 | 23 | 0.0 | 1.6 | 0.00 | 0.64 | 0.64 | 76 | 1008.9 |
| 20260506215858 | 20 | 23 | 4.8 | 6.4 | 0.00 | 0.64 | 0.64 | 76 | 1008.9 |
| 20260506215354 | 20 | 23 | 6.4 | 9.7 | 0.00 | 0.64 | 0.64 | 75 | 1009.1 |
| 20260506214850 | 20 | 23 | 6.4 | 6.4 | 0.00 | 0.64 | 0.64 | 75 | 1009.0 |
| 20260506214347 | 20 | 23 | 4.8 | 6.4 | 0.00 | 0.64 | 0.64 | 74 | 1009.0 |
| 20260506213845 | 21 | 23 | 4.8 | 4.8 | 0.00 | 0.64 | 0.64 | 74 | 1008.8 |
| 20260506213342 | 21 | 23 | 4.8 | 4.8 | 0.00 | 0.64 | 0.64 | 74 | 1009.1 |
| 20260506212839 | 21 | 23 | 3.2 | 3.2 | 0.00 | 0.64 | 0.64 | 73 | 1008.8 |
| 20260506212335 | 21 | 23 | 4.8 | 6.4 | 0.00 | 0.64 | 0.64 | 72 | 1008.7 |
| 20260506211830 | 21 | 23 | 1.6 | 3.2 | 0.00 | 0.64 | 0.64 | 72 | 1008.5 |
| 20260506211326 | 21 | 23 | 3.2 | 3.2 | 0.00 | 0.64 | 0.64 | 73 | 1008.5 |
| 20260506210824 | 21 | 23 | 3.2 | 3.2 | 0.00 | 0.64 | 0.64 | 74 | 1008.6 |
| 20260506210320 | 21 | 23 | 3.2 | 3.2 | 0.00 | 0.64 | 0.64 | 73 | 1008.5 |
| 20260506205818 | 21 | 23 | 3.2 | 3.2 | 0.00 | 0.64 | 0.64 | 74 | 1008.5 |
| 20260506205314 | 21 | 23 | 1.6 | 1.6 | 0.00 | 0.64 | 0.64 | 75 | 1008.4 |
| 20260506204810 | 21 | 23 | 3.2 | 3.2 | 0.00 | 0.64 | 0.64 | 73 | 1008.5 |
| 20260506204308 | 21 | 23 | 1.6 | 3.2 | 0.00 | 0.64 | 0.64 | 73 | 1008.4 |
| 20260506203806 | 21 | 23 | 1.6 | 1.6 | 0.00 | 0.64 | 0.64 | 74 | 1008.2 |
| 20260506203303 | 21 | 23 | 6.4 | 6.4 | 0.00 | 0.64 | 0.64 | 75 | 1008.4 |
| 20260506202759 | 20 | 23 | 3.2 | 6.4 | 0.00 | 0.64 | 0.64 | 74 | 1008.3 |
| 20260506202256 | 20 | 23 | 3.2 | 4.8 | 0.00 | 0.64 | 0.64 | 74 | 1008.6 |
| 20260506201753 | 21 | 23 | 6.4 | 11.3 | 0.00 | 0.64 | 0.64 | 74 | 1008.4 |
| 20260506201249 | 21 | 23 | 3.2 | 4.8 | 0.00 | 0.64 | 0.64 | 73 | 1008.4 |
| 20260506200747 | 22 | 23 | 6.4 | 9.7 | 0.00 | 0.64 | 0.64 | 70 | 1008.6 |
| 20260506200243 | 22 | 23 | 6.4 | 9.7 | 0.00 | 0.64 | 0.64 | 69 | 1008.3 |
| 20260506195739 | 21 | 23 | 3.2 | 3.2 | 0.00 | 0.64 | 0.64 | 73 | 1008.4 |
| 20260506195236 | 21 | 23 | 1.6 | 6.4 | 0.00 | 0.64 | 0.64 | 71 | 1008.3 |
| 20260506194733 | 21 | 23 | 3.2 | 3.2 | 0.00 | 0.64 | 0.64 | 73 | 1008.4 |
| 20260506194230 | 21 | 23 | 3.2 | 3.2 | 0.00 | 0.64 | 0.64 | 72 | 1008.4 |
| 20260506193728 | 21 | 23 | 4.8 | 4.8 | 0.00 | 0.64 | 0.64 | 72 | 1008.6 |
| 20260506193224 | 21 | 23 | 4.8 | 4.8 | 0.00 | 0.64 | 0.64 | 72 | 1008.5 |
| 20260506192721 | 21 | 23 | 1.6 | 3.2 | 0.00 | 0.64 | 0.64 | 73 | 1008.6 |
| 20260506192217 | 21 | 23 | 0.0 | 0.0 | 0.00 | 0.64 | 0.64 | 74 | 1008.7 |
| 20260506191714 | 21 | 23 | 9.7 | 12.9 | 0.00 | 0.64 | 0.64 | 73 | 1008.6 |
| 20260506191210 | 20 | 23 | 4.8 | 6.4 | 0.00 | 0.64 | 0.64 | 73 | 1008.7 |
| 20260506190708 | 21 | 23 | 3.2 | 3.2 | 0.00 | 0.64 | 0.64 | 74 | 1008.5 |
| 20260506190204 | 20 | 23 | 1.6 | 1.6 | 0.00 | 0.64 | 0.64 | 75 | 1008.8 |
| 20260506185702 | 20 | 23 | 8.0 | 11.3 | 0.00 | 0.64 | 0.64 | 75 | 1008.9 |
| 20260506185158 | 20 | 23 | 3.2 | 6.4 | 0.00 | 0.64 | 0.64 | 76 | 1009.0 |
| 20260506184656 | 20 | 23 | 3.2 | 4.8 | 0.00 | 0.64 | 0.64 | 76 | 1008.9 |
| 20260506184153 | 20 | 23 | 1.6 | 3.2 | 0.00 | 0.64 | 0.64 | 76 | 1009.0 |
| 20260506183649 | 20 | 23 | 3.2 | 4.8 | 0.00 | 0.64 | 0.64 | 77 | 1009.2 |
| 20260506183145 | 20 | 23 | 1.6 | 3.2 | 0.00 | 0.64 | 0.64 | 77 | 1009.2 |
| 20260506182643 | 19 | 23 | 6.4 | 9.7 | 0.00 | 0.64 | 0.64 | 77 | 1009.2 |
| 20260506182139 | 19 | 23 | 6.4 | 9.7 | 0.00 | 0.64 | 0.64 | 78 | 1009.3 |
| 20260506181637 | 19 | 23 | 1.6 | 1.6 | 0.00 | 0.64 | 0.64 | 80 | 1009.2 |
| 20260506181134 | 19 | 23 | 8.0 | 11.3 | 0.00 | 0.64 | 0.64 | 80 | 1009.2 |
| 20260506180631 | 18 | 23 | 3.2 | 4.8 | 0.00 | 0.64 | 0.64 | 80 | 1009.4 |
| 20260506180128 | 18 | 23 | 6.4 | 12.9 | 0.00 | 0.64 | 0.64 | 81 | 1009.3 |
| 20260506175624 | 18 | 23 | 1.6 | 1.6 | 0.00 | 0.64 | 0.64 | 81 | 1009.4 |
| 20260506175120 | 18 | 23 | 3.2 | 4.8 | 0.00 | 0.64 | 0.64 | 82 | 1009.3 |
| 20260506174619 | 18 | 23 | 1.6 | 3.2 | 0.00 | 0.64 | 0.64 | 84 | 1009.4 |
| 20260506174115 | 18 | 23 | 8.0 | 12.9 | 0.00 | 0.64 | 0.64 | 82 | 1009.6 |
| 20260506173613 | 18 | 23 | 6.4 | 6.4 | 0.00 | 0.64 | 0.64 | 82 | 1009.3 |
| 20260506173109 | 18 | 23 | 4.8 | 4.8 | 0.00 | 0.64 | 0.64 | 83 | 1009.3 |
| 20260506172607 | 18 | 23 | 8.0 | 11.3 | 0.00 | 0.64 | 0.64 | 83 | 1009.3 |
| 20260506172103 | 18 | 23 | 4.8 | 6.4 | 0.00 | 0.64 | 0.64 | 84 | 1009.4 |
| 20260506171601 | 18 | 23 | 6.4 | 6.4 | 0.00 | 0.64 | 0.64 | 84 | 1009.5 |
| 20260506171058 | 17 | 23 | 4.8 | 6.4 | 0.00 | 0.64 | 0.64 | 84 | 1009.6 |
| 20260506170555 | 17 | 23 | 3.2 | 4.8 | 0.00 | 0.64 | 0.64 | 86 | 1009.6 |
| 20260506170053 | 17 | 23 | 12.9 | 17.7 | 0.00 | 0.64 | 0.64 | 85 | 1009.5 |
| 20260506165551 | 17 | 23 | 4.8 | 6.4 | 0.00 | 0.64 | 0.64 | 86 | 1009.6 |
| 20260506165047 | 17 | 23 | 3.2 | 4.8 | 0.00 | 0.64 | 0.64 | 88 | 1009.6 |
| 20260506164544 | 17 | 23 | 4.8 | 6.4 | 0.00 | 0.64 | 0.64 | 88 | 1009.5 |
| 20260506164042 | 17 | 23 | 0.0 | 1.6 | 0.00 | 0.64 | 0.64 | 89 | 1009.7 |
| 20260506163537 | 17 | 23 | 4.8 | 4.8 | 0.00 | 0.64 | 0.64 | 88 | 1009.8 |
| 20260506163033 | 17 | 23 | 4.8 | 11.3 | 0.00 | 0.64 | 0.64 | 89 | 1009.8 |
| 20260506162530 | 17 | 23 | 6.4 | 11.3 | 0.00 | 0.64 | 0.64 | 89 | 1009.8 |
| 20260506162027 | 16 | 23 | 6.4 | 9.7 | 0.00 | 0.64 | 0.64 | 90 | 1009.7 |
| 20260506161525 | 16 | 23 | 1.6 | 1.6 | 0.00 | 0.64 | 0.64 | 90 | 1009.7 |
| 20260506161021 | 16 | 23 | 1.6 | 3.2 | 0.00 | 0.64 | 0.64 | 90 | 1009.8 |
| 20260506160519 | 16 | 23 | 3.2 | 3.2 | 0.00 | 0.64 | 0.64 | 90 | 1009.7 |
| 20260506160016 | 16 | 23 | 4.8 | 6.4 | 0.00 | 0.64 | 0.64 | 90 | 1009.8 |
| 20260506155515 | 16 | 23 | 4.8 | 4.8 | 0.00 | 0.64 | 0.64 | 91 | 1009.9 |
| 20260506153646 | 16 | 24 | 8.0 | 12.9 | 0.00 | 0.64 | 0.64 | 92 | 1009.9 |
| 20260506153143 | 16 | 23 | 1.6 | 3.2 | 0.00 | 0.64 | 0.64 | 92 | 1010.1 |
| 20260506152640 | 16 | 24 | 9.7 | 12.9 | 0.13 | 0.64 | 0.64 | 92 | 1010.0 |
| 20260506152137 | 16 | 24 | 11.3 | 14.5 | 0.13 | 0.64 | 0.64 | 93 | 1010.0 |
| 20260506151636 | 15 | 23 | 1.6 | 3.2 | 0.00 | 0.61 | 0.61 | 93 | 1010.2 |
| 20260506151132 | 16 | 24 | 6.4 | 9.7 | 0.00 | 0.61 | 0.61 | 93 | 1010.2 |
| 20260506150629 | 16 | 24 | 17.7 | 22.5 | 0.18 | 0.61 | 0.61 | 93 | 1010.1 |
| 20260506150126 | 16 | 24 | 3.2 | 4.8 | 0.18 | 0.61 | 0.61 | 93 | 1010.3 |
| 20260506145623 | 16 | 24 | 6.4 | 11.3 | 0.00 | 0.58 | 0.58 | 93 | 1010.4 |
| 20260506145120 | 16 | 24 | 3.2 | 3.2 | 0.00 | 0.58 | 0.58 | 93 | 1010.5 |
| 20260506144617 | 16 | 23 | 3.2 | 3.2 | 0.13 | 0.58 | 0.58 | 93 | 1010.8 |
| 20260506144114 | 16 | 23 | 1.6 | 3.2 | 0.13 | 0.58 | 0.58 | 93 | 1010.7 |
| 20260506143612 | 15 | 24 | 4.8 | 4.8 | 0.18 | 0.56 | 0.56 | 93 | 1010.7 |
| 20260506143110 | 15 | 23 | 4.8 | 9.7 | 0.18 | 0.56 | 0.56 | 93 | 1010.5 |
| 20260506142607 | 15 | 24 | 8.0 | 11.3 | 0.00 | 0.53 | 0.53 | 93 | 1010.6 |
| 20260506142105 | 15 | 24 | 1.6 | 1.6 | 0.30 | 0.53 | 0.53 | 93 | 1010.7 |
| 20260506141602 | 15 | 24 | 3.2 | 3.2 | 0.30 | 0.53 | 0.53 | 93 | 1010.4 |
| 20260506141101 | 15 | 24 | 0.0 | 0.0 | 0.13 | 0.48 | 0.48 | 92 | 1010.4 |
| 20260506140558 | 15 | 24 | 6.4 | 11.3 | 0.43 | 0.48 | 0.48 | 92 | 1010.6 |
| 20260506140055 | 16 | 24 | 8.0 | 12.9 | 0.48 | 0.46 | 0.46 | 92 | 1010.4 |
| 20260506135552 | 16 | 23 | 6.4 | 11.3 | 0.43 | 0.43 | 0.43 | 92 | 1010.5 |
| 20260506135048 | 16 | 24 | 6.4 | 6.4 | 0.30 | 0.38 | 0.38 | 92 | 1010.7 |